Time;durP1;ratioP1;P1;durP2;ratioP2;P2;SDS_P1;SDS_P2;PMS_P1;PMS_P2;Temp;Humidity;BMP_temperature;BMP_pressure;BME280_temperature;BME280_humidity;BME280_pressure;Samples;Min_cycle;Max_cycle;Signal;HPM_P1;HPM_P2
2022/05/19 00:01:27;;;;;;;;;;;16.40;99.90;;;;;;5008789;28;19932;-68
2022/05/19 00:03:54;;;;;;;;;;;16.40;99.90;;;;;;5006811;28;19925;-68
2022/05/19 00:06:21;;;;;;;;;;;16.50;99.90;;;;;;4997891;28;19929;-67
2022/05/19 00:08:48;;;;;;;;;;;16.50;99.90;;;;;;5010275;28;20479;-68
2022/05/19 00:11:16;;;;;;;;;;;16.50;99.90;;;;;;5005884;28;19932;-68
2022/05/19 00:13:43;;;;;;;;;;;16.50;99.90;;;;;;5001446;28;19929;-68
2022/05/19 00:16:10;;;;;;;;;;;16.40;99.90;;;;;;5005852;28;19925;-68
2022/05/19 00:18:36;;;;;;;;;;;16.30;99.90;;;;;;5008545;28;19932;-68
2022/05/19 00:21:03;;;;;;;;;;;16.30;99.90;;;;;;5009586;28;20028;-68
2022/05/19 00:23:30;;;;;;;;;;;16.20;99.90;;;;;;5003024;28;19926;-68
2022/05/19 00:25:57;;;;;;;;;;;16.10;99.90;;;;;;5007229;28;19969;-68
2022/05/19 00:28:23;;;;;;;;;;;16.10;99.90;;;;;;5003428;28;19940;-68
2022/05/19 00:30:56;;;;;;;;;;;16.00;99.90;;;;;;5008537;28;20373;-68
2022/05/19 00:33:23;;;;;;;;;;;15.90;99.90;;;;;;4995425;28;20372;-67
2022/05/19 00:35:52;;;;;;;;;;;15.80;99.90;;;;;;5009344;28;19983;-67
2022/05/19 00:38:18;;;;;;;;;;;15.80;99.90;;;;;;5008457;28;19932;-68
2022/05/19 00:40:47;;;;;;;;;;;15.80;99.90;;;;;;5007543;28;20059;-68
2022/05/19 00:43:15;;;;;;;;;;;15.80;99.90;;;;;;5010035;28;19930;-68
2022/05/19 00:45:49;;;;;;;;;;;15.80;99.90;;;;;;5004986;28;19929;-68
2022/05/19 00:48:18;;;;;;;;;;;15.70;99.90;;;;;;5022564;28;19952;-68
2022/05/19 00:50:55;;;;;;;;;;;15.60;99.90;;;;;;5009150;28;19930;-68
2022/05/19 00:53:40;;;;;;;;;;;15.60;99.90;;;;;;5008746;28;20315;-68
2022/05/19 00:56:12;;;;;;;;;;;15.60;99.90;;;;;;5037550;28;19937;-68
2022/05/19 00:58:46;;;;;;;;;;;15.50;99.90;;;;;;5007777;28;19929;-68
2022/05/19 01:01:13;;;;;;;;;;;15.60;99.90;;;;;;5007225;28;19955;-68
2022/05/19 01:03:46;;;;;;;;;;;15.60;99.90;;;;;;5008580;28;19933;-67
2022/05/19 01:06:15;;;;;;;;;;;15.60;99.90;;;;;;5001305;28;19934;-68
2022/05/19 01:08:50;;;;;;;;;;;15.60;99.90;;;;;;5010367;28;20026;-68
2022/05/19 01:11:18;;;;;;;;;;;15.60;99.90;;;;;;5005529;28;20438;-67
2022/05/19 01:13:45;;;;;;;;;;;15.50;99.90;;;;;;5005509;28;19980;-68
2022/05/19 01:16:12;;;;;;;;;;;15.50;99.90;;;;;;5007954;28;19940;-68
2022/05/19 01:18:39;;;;;;;;;;;15.50;99.90;;;;;;5006992;28;20024;-67
2022/05/19 01:21:07;;;;;;;;;;;15.50;99.90;;;;;;5009249;28;19933;-67
2022/05/19 01:23:41;;;;;;;;;;;15.50;99.90;;;;;;5010099;28;19944;-68
2022/05/19 01:26:26;;;;;;;;;;;15.40;99.90;;;;;;5010633;28;19929;-68
2022/05/19 01:29:00;;;;;;;;;;;15.40;99.90;;;;;;5003998;28;20329;-67
2022/05/19 01:31:28;;;;;;;;;;;15.50;99.90;;;;;;5009256;28;19926;-68
2022/05/19 01:33:55;;;;;;;;;;;15.60;99.90;;;;;;5005523;28;19929;-68
2022/05/19 01:36:22;;;;;;;;;;;15.60;99.90;;;;;;5003639;28;20040;-69
2022/05/19 01:38:55;;;;;;;;;;;15.60;99.90;;;;;;5002588;28;19926;-68
2022/05/19 01:41:24;;;;;;;;;;;15.60;99.90;;;;;;5007742;28;19925;-69
2022/05/19 01:44:09;;;;;;;;;;;15.60;99.90;;;;;;5007171;28;19926;-69
2022/05/19 01:46:37;;;;;;;;;;;15.60;99.90;;;;;;5009029;28;19930;-69
2022/05/19 01:49:09;;;;;;;;;;;15.50;99.90;;;;;;5005699;28;19998;-69
2022/05/19 01:51:54;;;;;;;;;;;15.50;99.90;;;;;;5007763;28;19936;-69
2022/05/19 01:54:27;;;;;;;;;;;15.40;99.90;;;;;;5010365;28;19932;-69
2022/05/19 01:57:02;;;;;;;;;;;15.40;99.90;;;;;;5008478;28;19948;-68
2022/05/19 01:59:31;;;;;;;;;;;15.30;99.90;;;;;;5003969;28;19925;-68
2022/05/19 02:02:03;;;;;;;;;;;15.30;99.90;;;;;;5006970;28;19991;-68
2022/05/19 02:04:37;;;;;;;;;;;15.20;99.90;;;;;;5003616;28;19969;-68
2022/05/19 02:07:05;;;;;;;;;;;15.20;99.90;;;;;;5000944;28;19932;-68
2022/05/19 02:09:33;;;;;;;;;;;15.20;99.90;;;;;;5003706;28;19931;-68
2022/05/19 02:12:01;;;;;;;;;;;15.20;99.90;;;;;;5006428;28;19925;-68
2022/05/19 02:14:33;;;;;;;;;;;15.20;99.90;;;;;;5009171;28;19932;-68
2022/05/19 02:17:01;;;;;;;;;;;15.20;99.90;;;;;;5006883;28;19929;-68
2022/05/19 02:19:30;;;;;;;;;;;15.20;99.90;;;;;;5004017;28;20683;-68
2022/05/19 02:22:00;;;;;;;;;;;15.20;99.90;;;;;;5009726;28;19932;-69
2022/05/19 02:24:27;;;;;;;;;;;15.20;99.90;;;;;;5008574;28;20396;-69
2022/05/19 02:26:53;;;;;;;;;;;15.10;99.90;;;;;;5006811;28;20435;-69
2022/05/19 02:29:23;;;;;;;;;;;15.10;99.90;;;;;;5003155;28;19999;-69
2022/05/19 02:31:50;;;;;;;;;;;15.10;99.90;;;;;;5007551;28;19957;-69
2022/05/19 02:34:20;;;;;;;;;;;15.00;99.90;;;;;;5007120;28;20427;-69
2022/05/19 02:36:47;;;;;;;;;;;14.90;99.90;;;;;;5010198;28;20024;-69
2022/05/19 02:39:13;;;;;;;;;;;14.90;99.90;;;;;;5006561;28;19976;-69
2022/05/19 02:41:41;;;;;;;;;;;14.80;99.90;;;;;;5008023;28;19925;-69
2022/05/19 02:44:07;;;;;;;;;;;14.80;99.90;;;;;;5007575;28;19932;-70
2022/05/19 02:46:34;;;;;;;;;;;14.70;99.90;;;;;;5009912;28;19935;-69
2022/05/19 02:49:01;;;;;;;;;;;14.70;99.90;;;;;;5010124;28;19968;-69
2022/05/19 02:51:28;;;;;;;;;;;14.70;99.90;;;;;;5005097;28;19925;-68
2022/05/19 02:53:54;;;;;;;;;;;14.70;99.90;;;;;;5008156;28;20016;-68
2022/05/19 02:56:21;;;;;;;;;;;14.70;99.90;;;;;;5008971;28;19931;-68
2022/05/19 02:58:48;;;;;;;;;;;14.70;99.90;;;;;;5007147;28;20016;-69
2022/05/19 03:01:14;;;;;;;;;;;14.70;99.90;;;;;;5007857;28;20008;-69
2022/05/19 03:03:41;;;;;;;;;;;14.70;99.90;;;;;;5007960;28;19933;-69
2022/05/19 03:06:07;;;;;;;;;;;14.60;99.90;;;;;;5006650;28;20541;-70
2022/05/19 03:08:34;;;;;;;;;;;14.60;99.90;;;;;;5007397;28;19932;-69
2022/05/19 03:11:01;;;;;;;;;;;14.50;99.90;;;;;;5006054;28;19967;-70
2022/05/19 03:13:28;;;;;;;;;;;14.40;99.90;;;;;;5003130;28;20328;-69
2022/05/19 03:15:54;;;;;;;;;;;14.40;99.90;;;;;;5007458;28;20032;-69
2022/05/19 03:18:21;;;;;;;;;;;14.40;99.90;;;;;;5005265;28;19976;-69
2022/05/19 03:20:48;;;;;;;;;;;14.30;99.90;;;;;;5003138;28;20013;-69
2022/05/19 03:23:15;;;;;;;;;;;14.30;99.90;;;;;;5008199;28;19933;-69
2022/05/19 03:25:41;;;;;;;;;;;14.30;99.90;;;;;;5009176;28;19926;-69
2022/05/19 03:28:11;;;;;;;;;;;14.20;99.90;;;;;;5009073;28;20394;-71
2022/05/19 03:30:38;;;;;;;;;;;14.20;99.90;;;;;;5008987;28;19980;-70
2022/05/19 03:33:05;;;;;;;;;;;14.20;99.90;;;;;;5003852;28;19930;-70
2022/05/19 03:35:31;;;;;;;;;;;14.20;99.90;;;;;;5007136;28;20331;-68
2022/05/19 03:37:58;;;;;;;;;;;14.20;99.90;;;;;;5003570;28;19934;-68
2022/05/19 03:40:25;;;;;;;;;;;14.30;99.90;;;;;;5007900;28;19932;-69
2022/05/19 03:42:52;;;;;;;;;;;14.30;99.90;;;;;;5012571;28;19940;-69
2022/05/19 03:45:22;;;;;;;;;;;14.40;99.90;;;;;;4996281;28;20049;-69
2022/05/19 03:47:48;;;;;;;;;;;14.50;99.90;;;;;;5014734;28;19933;-68
2022/05/19 03:50:15;;;;;;;;;;;14.60;99.90;;;;;;5018547;28;19940;-69
2022/05/19 03:52:42;;;;;;;;;;;14.60;99.90;;;;;;5010448;28;19926;-69
2022/05/19 03:55:11;;;;;;;;;;;14.60;99.90;;;;;;5009075;28;19929;-70
2022/05/19 03:57:38;;;;;;;;;;;14.60;99.90;;;;;;5011452;28;20021;-69
2022/05/19 04:00:07;;;;;;;;;;;14.60;99.90;;;;;;5009965;28;19936;-69
2022/05/19 04:02:33;;;;;;;;;;;14.60;99.90;;;;;;5011566;28;19929;-69
2022/05/19 04:05:02;;;;;;;;;;;14.60;99.90;;;;;;5007603;28;19925;-69
2022/05/19 04:07:29;;;;;;;;;;;14.60;99.90;;;;;;5007267;28;19934;-68
2022/05/19 04:09:56;;;;;;;;;;;14.60;99.90;;;;;;5007353;28;19926;-69
2022/05/19 04:12:23;;;;;;;;;;;14.70;99.90;;;;;;5004202;28;19926;-68
2022/05/19 04:14:49;;;;;;;;;;;14.80;99.90;;;;;;5007651;28;19929;-69
2022/05/19 04:17:16;;;;;;;;;;;14.80;99.90;;;;;;5010284;28;20040;-69
2022/05/19 04:19:43;;;;;;;;;;;14.90;99.90;;;;;;5012156;28;20022;-68
2022/05/19 04:22:12;;;;;;;;;;;15.00;99.90;;;;;;5002370;28;19931;-68
2022/05/19 04:24:39;;;;;;;;;;;15.00;99.90;;;;;;5008795;28;19925;-68
2022/05/19 04:27:07;;;;;;;;;;;15.10;99.90;;;;;;5016214;28;19929;-68
2022/05/19 04:29:33;;;;;;;;;;;15.20;99.90;;;;;;5007829;28;19929;-69
2022/05/19 04:32:00;;;;;;;;;;;15.30;99.90;;;;;;5016227;28;20009;-69
2022/05/19 04:34:27;;;;;;;;;;;15.50;99.90;;;;;;5011096;28;19932;-67
2022/05/19 04:36:53;;;;;;;;;;;15.70;99.90;;;;;;5012045;28;20026;-68
2022/05/19 04:39:21;;;;;;;;;;;15.80;99.90;;;;;;5009658;28;20417;-67
2022/05/19 04:41:47;;;;;;;;;;;16.10;99.90;;;;;;5007198;28;20435;-66
2022/05/19 04:44:16;;;;;;;;;;;16.30;99.90;;;;;;5007377;28;20020;-66
2022/05/19 04:46:43;;;;;;;;;;;16.60;99.90;;;;;;5004388;28;19940;-65
2022/05/19 04:49:10;;;;;;;;;;;16.90;99.90;;;;;;5012367;28;19934;-66
2022/05/19 04:51:36;;;;;;;;;;;17.20;99.90;;;;;;5005822;28;19929;-67
2022/05/19 04:54:03;;;;;;;;;;;17.60;99.90;;;;;;5002332;28;20058;-66
2022/05/19 04:56:30;;;;;;;;;;;18.30;99.90;;;;;;5004003;28;19943;-66
2022/05/19 04:58:57;;;;;;;;;;;19.00;99.90;;;;;;5007182;28;19930;-67
2022/05/19 05:01:24;;;;;;;;;;;19.60;99.90;;;;;;5012369;28;20016;-67
2022/05/19 05:03:50;;;;;;;;;;;20.00;99.90;;;;;;5002836;28;19930;-66
2022/05/19 05:06:17;;;;;;;;;;;20.50;99.90;;;;;;5007546;28;19934;-66
2022/05/19 05:08:44;;;;;;;;;;;21.00;99.90;;;;;;5007020;28;19925;-66
2022/05/19 05:11:10;;;;;;;;;;;21.20;99.90;;;;;;5006263;28;20040;-66
2022/05/19 05:13:39;;;;;;;;;;;21.00;99.90;;;;;;4983148;28;19933;-66
2022/05/19 05:16:06;;;;;;;;;;;20.70;99.90;;;;;;5004421;28;19957;-66
2022/05/19 05:18:33;;;;;;;;;;;20.50;99.90;;;;;;5006136;28;20580;-66
2022/05/19 05:21:03;;;;;;;;;;;20.30;99.90;;;;;;4993782;28;19926;-66
2022/05/19 05:23:33;;;;;;;;;;;20.10;99.90;;;;;;5005085;28;19926;-65
2022/05/19 05:26:03;;;;;;;;;;;19.90;99.90;;;;;;5003894;28;19925;-65
2022/05/19 05:28:30;;;;;;;;;;;19.90;99.90;;;;;;5005168;28;20028;-65
2022/05/19 05:30:57;;;;;;;;;;;20.00;99.90;;;;;;5001095;28;19933;-66
2022/05/19 05:33:23;;;;;;;;;;;20.10;99.90;;;;;;5004983;28;19925;-66
2022/05/19 05:35:50;;;;;;;;;;;20.30;99.90;;;;;;5005759;28;20444;-65
2022/05/19 05:38:17;;;;;;;;;;;20.40;99.90;;;;;;5007731;28;19934;-65
2022/05/19 05:40:44;;;;;;;;;;;20.70;99.90;;;;;;5004549;28;20555;-65
2022/05/19 05:43:19;;;;;;;;;;;21.10;99.90;;;;;;5003240;28;19930;-66
2022/05/19 05:45:46;;;;;;;;;;;21.80;99.90;;;;;;5002788;28;19933;-65
2022/05/19 05:48:14;;;;;;;;;;;22.20;99.90;;;;;;5008307;28;19925;-66
2022/05/19 05:50:42;;;;;;;;;;;22.50;99.90;;;;;;5005734;28;19961;-65
2022/05/19 05:53:09;;;;;;;;;;;22.60;99.90;;;;;;5007868;28;19930;-65
2022/05/19 05:55:37;;;;;;;;;;;22.70;99.90;;;;;;5009167;28;20021;-65
2022/05/19 05:58:05;;;;;;;;;;;23.00;99.90;;;;;;5001672;28;20012;-65
2022/05/19 06:00:32;;;;;;;;;;;23.20;99.90;;;;;;5006927;28;20017;-64
2022/05/19 06:03:01;;;;;;;;;;;23.90;99.90;;;;;;5007392;28;19976;-64
2022/05/19 06:05:28;;;;;;;;;;;24.10;99.90;;;;;;5007969;28;19978;-64
2022/05/19 06:07:55;;;;;;;;;;;24.60;99.90;;;;;;5002610;28;19934;-64
2022/05/19 06:10:21;;;;;;;;;;;25.20;99.90;;;;;;5007466;28;20280;-64
2022/05/19 06:12:49;;;;;;;;;;;25.70;99.90;;;;;;5002616;28;19926;-63
2022/05/19 06:15:16;;;;;;;;;;;25.90;99.90;;;;;;5006996;28;19925;-64
2022/05/19 06:17:42;;;;;;;;;;;26.00;99.90;;;;;;5008216;28;19931;-64
2022/05/19 06:20:11;;;;;;;;;;;26.30;99.90;;;;;;5004625;28;19948;-65
2022/05/19 06:22:38;;;;;;;;;;;26.60;99.90;;;;;;5007589;28;20097;-64
2022/05/19 06:25:06;;;;;;;;;;;26.60;99.90;;;;;;5007932;28;19961;-63
2022/05/19 06:27:32;;;;;;;;;;;26.60;99.90;;;;;;5008680;28;19925;-62
2022/05/19 06:29:59;;;;;;;;;;;26.00;99.90;;;;;;5005547;28;19936;-63
2022/05/19 06:32:26;;;;;;;;;;;26.20;99.90;;;;;;5005336;28;19979;-63
2022/05/19 06:34:52;;;;;;;;;;;26.50;99.90;;;;;;5003837;28;19936;-65
2022/05/19 06:37:19;;;;;;;;;;;26.90;99.90;;;;;;5005282;28;19932;-64
2022/05/19 06:39:45;;;;;;;;;;;27.50;99.90;;;;;;4997634;28;19936;-64
2022/05/19 06:42:18;;;;;;;;;;;27.70;99.90;;;;;;5005575;28;19925;-65
2022/05/19 06:44:46;;;;;;;;;;;27.50;99.90;;;;;;4997817;28;19947;-65
2022/05/19 06:47:15;;;;;;;;;;;27.80;99.90;;;;;;5002876;28;19932;-65
2022/05/19 06:49:46;;;;;;;;;;;28.50;99.90;;;;;;5003920;28;20440;-63
2022/05/19 06:52:14;;;;;;;;;;;29.20;99.90;;;;;;5001060;28;20050;-63
2022/05/19 06:54:44;;;;;;;;;;;29.90;99.70;;;;;;4997317;28;20549;-63
2022/05/19 06:57:13;;;;;;;;;;;30.50;99.20;;;;;;5000534;28;20045;-64
2022/05/19 06:59:40;;;;;;;;;;;30.50;98.90;;;;;;5000743;28;19932;-65
2022/05/19 07:02:13;;;;;;;;;;;30.80;98.20;;;;;;5000495;28;20273;-63
2022/05/19 07:04:40;;;;;;;;;;;30.90;97.90;;;;;;4999306;28;19941;-64
2022/05/19 07:07:07;;;;;;;;;;;30.70;98.30;;;;;;5002793;28;19941;-65
2022/05/19 07:09:35;;;;;;;;;;;30.90;98.50;;;;;;4996663;28;20047;-65
2022/05/19 07:12:03;;;;;;;;;;;31.50;97.40;;;;;;5003993;28;20031;-62
2022/05/19 07:14:31;;;;;;;;;;;31.70;96.70;;;;;;5001191;28;19943;-63
2022/05/19 07:16:58;;;;;;;;;;;31.20;96.30;;;;;;5005207;28;20288;-64
2022/05/19 07:22:14;;;;;;;;;;;31.40;96.10;;;;;;5009247;28;19932;-63
2022/05/19 07:24:51;;;;;;;;;;;31.70;95.50;;;;;;5013328;28;20360;-63
2022/05/19 07:27:18;;;;;;;;;;;31.70;95.80;;;;;;5008390;28;19976;-64
2022/05/19 07:29:45;;;;;;;;;;;31.30;94.60;;;;;;5008328;28;19960;-63
2022/05/19 07:32:18;;;;;;;;;;;31.20;94.40;;;;;;5012555;28;19941;-64
2022/05/19 07:34:45;;;;;;;;;;;31.30;94.80;;;;;;5010923;28;20135;-63
2022/05/19 07:37:12;;;;;;;;;;;31.40;95.10;;;;;;5013215;28;20012;-64
2022/05/19 07:39:39;;;;;;;;;;;30.90;94.50;;;;;;5014669;28;19931;-63
2022/05/19 07:42:05;;;;;;;;;;;30.70;94.70;;;;;;5014048;28;19959;-63
2022/05/19 07:44:32;;;;;;;;;;;30.80;94.80;;;;;;5013830;28;19961;-64
2022/05/19 07:46:59;;;;;;;;;;;30.90;94.90;;;;;;5010736;28;19933;-64
2022/05/19 07:49:28;;;;;;;;;;;31.30;94.70;;;;;;5012146;28;19933;-65
2022/05/19 07:51:54;;;;;;;;;;;31.50;95.30;;;;;;5008069;28;20016;-63
2022/05/19 07:54:22;;;;;;;;;;;32.00;94.90;;;;;;5008058;28;19936;-63
2022/05/19 07:56:49;;;;;;;;;;;31.60;93.90;;;;;;5002291;28;20308;-64
2022/05/19 07:59:16;;;;;;;;;;;31.50;94.70;;;;;;5009852;28;20020;-62
2022/05/19 08:01:46;;;;;;;;;;;31.30;94.00;;;;;;5009364;28;19929;-64
2022/05/19 08:04:18;;;;;;;;;;;31.20;94.80;;;;;;5010470;28;19964;-64
2022/05/19 08:06:46;;;;;;;;;;;31.10;94.90;;;;;;5009148;28;19936;-63
2022/05/19 08:11:58;;;;;;;;;;;30.70;93.50;;;;;;5006187;28;19925;-63
2022/05/19 08:17:30;;;;;;;;;;;31.50;92.70;;;;;;4995533;28;19955;-63
2022/05/19 08:19:58;;;;;;;;;;;32.00;92.70;;;;;;4991525;28;19930;-64
2022/05/19 08:22:26;;;;;;;;;;;32.10;91.40;;;;;;5039872;28;20277;-63
2022/05/19 08:24:53;;;;;;;;;;;31.90;91.70;;;;;;5016502;28;19925;-62
2022/05/19 08:27:19;;;;;;;;;;;32.10;91.80;;;;;;5007687;28;19929;-64
2022/05/19 08:29:46;;;;;;;;;;;31.50;91.90;;;;;;5005401;28;19933;-63
2022/05/19 08:32:13;;;;;;;;;;;31.00;91.00;;;;;;5010908;28;19929;-62
2022/05/19 08:34:39;;;;;;;;;;;31.10;91.80;;;;;;5010523;28;19925;-65
2022/05/19 08:37:06;;;;;;;;;;;31.20;92.50;;;;;;5012561;28;20029;-65
2022/05/19 08:39:33;;;;;;;;;;;31.00;91.90;;;;;;5008409;28;20028;-66
2022/05/19 08:42:01;;;;;;;;;;;31.10;91.50;;;;;;5011812;28;19932;-66
2022/05/19 08:44:30;;;;;;;;;;;31.20;91.00;;;;;;5012163;28;19931;-60
2022/05/19 08:46:58;;;;;;;;;;;31.00;91.40;;;;;;5004996;28;19955;-62
2022/05/19 08:49:34;;;;;;;;;;;31.40;91.40;;;;;;5012467;28;19926;-61
2022/05/19 08:52:03;;;;;;;;;;;30.90;90.60;;;;;;5014617;28;19926;-63
2022/05/19 08:54:31;;;;;;;;;;;30.80;91.70;;;;;;5002471;28;20001;-65
2022/05/19 08:57:07;;;;;;;;;;;30.90;92.00;;;;;;5010522;28;19979;-65
2022/05/19 08:59:37;;;;;;;;;;;30.40;92.20;;;;;;5002419;28;19925;-65
2022/05/19 09:02:06;;;;;;;;;;;30.40;93.00;;;;;;5005748;28;19936;-64
2022/05/19 09:04:51;;;;;;;;;;;30.10;92.60;;;;;;5008011;28;20001;-66
2022/05/19 09:10:31;;;;;;;;;;;30.00;93.20;;;;;;5007342;28;20439;-65
2022/05/19 09:13:04;;;;;;;;;;;29.90;93.20;;;;;;5006776;28;19932;-64
2022/05/19 09:15:32;;;;;;;;;;;29.60;93.00;;;;;;5009444;28;19925;-65
2022/05/19 09:17:59;;;;;;;;;;;29.50;93.30;;;;;;5006548;28;19956;-64
2022/05/19 09:20:31;;;;;;;;;;;29.90;93.40;;;;;;4998957;28;20508;-65
2022/05/19 09:23:06;;;;;;;;;;;29.90;93.30;;;;;;5005558;28;19975;-61
2022/05/19 09:25:36;;;;;;;;;;;30.20;93.50;;;;;;5008907;28;19926;-64
2022/05/19 09:28:03;;;;;;;;;;;30.40;93.80;;;;;;5001146;28;19973;-62
2022/05/19 09:30:45;;;;;;;;;;;30.70;93.50;;;;;;5001339;28;19963;-65
2022/05/19 09:33:28;;;;;;;;;;;30.90;93.60;;;;;;5002069;28;19937;-64
2022/05/19 09:35:55;;;;;;;;;;;30.70;93.10;;;;;;5004938;28;19932;-63
2022/05/19 09:38:36;;;;;;;;;;;30.10;93.60;;;;;;5007849;28;19925;-64
2022/05/19 09:41:17;;;;;;;;;;;30.20;93.50;;;;;;5009211;28;19929;-63
2022/05/19 09:43:48;;;;;;;;;;;30.20;93.90;;;;;;5006704;28;19975;-66
2022/05/19 09:46:16;;;;;;;;;;;30.70;93.40;;;;;;5008563;28;19933;-65
2022/05/19 09:48:48;;;;;;;;;;;31.20;93.20;;;;;;5010746;28;19930;-64
2022/05/19 09:51:19;;;;;;;;;;;31.60;93.00;;;;;;5009827;28;20349;-63
2022/05/19 09:53:54;;;;;;;;;;;31.70;92.60;;;;;;4999569;28;19980;-65
2022/05/19 09:56:22;;;;;;;;;;;31.60;93.40;;;;;;5005710;28;19933;-65
2022/05/19 09:58:51;;;;;;;;;;;31.90;93.80;;;;;;5002256;28;20036;-65
2022/05/19 10:01:19;;;;;;;;;;;32.30;92.50;;;;;;4997954;28;19934;-66
2022/05/19 10:03:49;;;;;;;;;;;33.10;92.50;;;;;;5002429;28;19935;-65
2022/05/19 10:06:17;;;;;;;;;;;32.60;92.00;;;;;;5008255;28;20369;-65
2022/05/19 10:08:45;;;;;;;;;;;32.50;92.80;;;;;;5002563;28;19936;-64
2022/05/19 10:11:17;;;;;;;;;;;32.10;92.40;;;;;;5002108;28;19929;-65
2022/05/19 10:13:49;;;;;;;;;;;31.70;92.70;;;;;;5005238;28;20360;-62
2022/05/19 10:16:16;;;;;;;;;;;31.80;93.00;;;;;;5008971;28;19933;-65
2022/05/19 10:18:49;;;;;;;;;;;32.20;93.40;;;;;;5008578;28;20386;-65
2022/05/19 10:21:34;;;;;;;;;;;32.60;93.30;;;;;;5007303;28;19928;-65
2022/05/19 10:24:04;;;;;;;;;;;32.90;93.70;;;;;;4994567;28;20012;-65
2022/05/19 10:26:30;;;;;;;;;;;33.80;92.60;;;;;;5010074;28;19971;-64
2022/05/19 10:32:00;;;;;;;;;;;34.50;91.40;;;;;;5003528;28;19933;-63
2022/05/19 10:34:39;;;;;;;;;;;33.70;91.80;;;;;;5004041;28;19965;-63
2022/05/19 10:37:16;;;;;;;;;;;33.40;91.70;;;;;;5006209;28;19929;-62
2022/05/19 10:39:55;;;;;;;;;;;32.80;92.80;;;;;;5017823;28;19929;-66
2022/05/19 10:42:28;;;;;;;;;;;32.50;92.70;;;;;;5010451;28;20012;-65
2022/05/19 10:45:15;;;;;;;;;;;32.40;93.20;;;;;;5005859;28;19948;-65
2022/05/19 10:48:00;;;;;;;;;;;32.20;92.80;;;;;;5017525;28;20012;-64
2022/05/19 10:50:30;;;;;;;;;;;31.90;92.80;;;;;;4996979;28;19933;-64
2022/05/19 10:52:58;;;;;;;;;;;31.20;93.50;;;;;;5001889;28;19929;-65
2022/05/19 10:55:24;;;;;;;;;;;31.20;93.80;;;;;;5009207;28;20024;-63
2022/05/19 10:57:51;;;;;;;;;;;31.10;93.60;;;;;;5007481;28;19926;-64
2022/05/19 11:00:20;;;;;;;;;;;31.20;93.60;;;;;;5004745;28;19925;-63
2022/05/19 11:03:23;;;;;;;;;;;31.60;93.70;;;;;;5008068;28;19933;-63
2022/05/19 11:06:09;;;;;;;;;;;31.40;93.80;;;;;;5001413;28;19925;-65
2022/05/19 11:08:39;;;;;;;;;;;31.70;95.10;;;;;;5006265;28;19925;-62
2022/05/19 11:11:14;;;;;;;;;;;32.10;93.40;;;;;;5004311;28;19989;-65
2022/05/19 11:13:51;;;;;;;;;;;32.00;93.40;;;;;;5004426;28;19957;-64
2022/05/19 11:16:18;;;;;;;;;;;32.00;93.70;;;;;;5005676;28;19968;-64
2022/05/19 11:18:46;;;;;;;;;;;32.30;93.50;;;;;;5006964;28;20312;-65
2022/05/19 11:21:15;;;;;;;;;;;32.20;93.50;;;;;;5006466;28;19933;-63
2022/05/19 11:23:51;;;;;;;;;;;32.30;93.50;;;;;;5003351;28;19929;-64
2022/05/19 11:26:24;;;;;;;;;;;32.40;93.30;;;;;;5005787;28;19934;-63
2022/05/19 11:29:09;;;;;;;;;;;32.50;93.70;;;;;;5007602;28;19931;-65
2022/05/19 11:31:36;;;;;;;;;;;32.50;93.70;;;;;;5008086;28;19926;-63
2022/05/19 11:34:07;;;;;;;;;;;33.10;93.70;;;;;;5005276;28;20297;-64
2022/05/19 11:36:43;;;;;;;;;;;33.30;93.70;;;;;;5008065;28;19932;-64
2022/05/19 11:39:18;;;;;;;;;;;33.30;93.40;;;;;;5000480;28;20009;-62
2022/05/19 11:41:47;;;;;;;;;;;33.90;93.40;;;;;;4996800;28;19925;-63
2022/05/19 11:44:19;;;;;;;;;;;34.70;93.80;;;;;;5004741;28;20252;-65
2022/05/19 11:46:52;;;;;;;;;;;35.00;91.90;;;;;;5007260;28;19929;-64
2022/05/19 11:55:23;;;;;;;;;;;34.80;91.50;;;;;;5008028;28;19925;-63
2022/05/19 11:57:54;;;;;;;;;;;34.20;92.30;;;;;;5000237;28;19952;-64
2022/05/19 12:00:27;;;;;;;;;;;33.80;92.20;;;;;;5005989;28;20373;-65
2022/05/19 12:03:06;;;;;;;;;;;32.70;92.50;;;;;;5008731;28;19933;-65
2022/05/19 12:05:39;;;;;;;;;;;32.20;93.10;;;;;;5019205;28;19994;-65
2022/05/19 12:08:20;;;;;;;;;;;31.80;93.70;;;;;;5041800;28;19925;-65
2022/05/19 12:10:48;;;;;;;;;;;31.90;94.00;;;;;;5006330;28;20442;-65
2022/05/19 12:13:19;;;;;;;;;;;32.40;93.80;;;;;;5005970;28;20456;-64
2022/05/19 12:15:54;;;;;;;;;;;32.90;94.10;;;;;;5004637;28;19932;-65
2022/05/19 12:18:30;;;;;;;;;;;32.60;94.20;;;;;;5010574;28;20571;-65
2022/05/19 12:21:06;;;;;;;;;;;32.40;94.20;;;;;;5019855;28;19925;-65
2022/05/19 12:23:34;;;;;;;;;;;32.40;94.30;;;;;;5016186;28;19925;-65
2022/05/19 12:26:11;;;;;;;;;;;32.90;94.00;;;;;;5015135;28;20008;-63
2022/05/19 12:28:45;;;;;;;;;;;32.70;93.80;;;;;;5015021;28;19929;-64
2022/05/19 12:34:04;;;;;;;;;;;31.50;94.90;;;;;;5015462;28;20010;-65
2022/05/19 12:36:31;;;;;;;;;;;32.00;94.50;;;;;;5012579;28;19933;-64
2022/05/19 12:39:08;;;;;;;;;;;32.30;94.50;;;;;;5020445;28;20289;-65
2022/05/19 12:41:50;;;;;;;;;;;32.60;94.50;;;;;;5010904;28;19929;-63
2022/05/19 12:44:35;;;;;;;;;;;32.60;94.30;;;;;;5014585;28;19926;-64
2022/05/19 12:47:16;;;;;;;;;;;32.40;94.70;;;;;;5008257;28;20040;-65
2022/05/19 12:50:01;;;;;;;;;;;32.10;94.50;;;;;;5011396;28;19972;-63
2022/05/19 12:52:46;;;;;;;;;;;31.90;94.90;;;;;;4996973;28;19930;-65
2022/05/19 12:55:22;;;;;;;;;;;32.10;94.50;;;;;;5003391;28;19925;-65
2022/05/19 12:57:53;;;;;;;;;;;32.30;95.10;;;;;;5005327;28;20032;-66
2022/05/19 13:00:24;;;;;;;;;;;32.50;95.20;;;;;;5006059;28;19933;-64
2022/05/19 13:03:13;;;;;;;;;;;32.50;94.80;;;;;;5008693;28;19933;-63
2022/05/19 13:05:54;;;;;;;;;;;32.40;95.10;;;;;;5006825;28;19934;-64
2022/05/19 13:08:32;;;;;;;;;;;32.20;94.80;;;;;;5003217;28;19984;-62
2022/05/19 13:11:00;;;;;;;;;;;32.20;94.70;;;;;;5003379;28;19932;-64
2022/05/19 13:13:31;;;;;;;;;;;32.10;95.60;;;;;;5007701;28;20016;-62
2022/05/19 13:15:58;;;;;;;;;;;32.00;95.30;;;;;;5002867;28;20284;-64
2022/05/19 13:18:33;;;;;;;;;;;32.10;95.40;;;;;;5001125;28;19931;-63
2022/05/19 13:21:34;;;;;;;;;;;32.20;95.50;;;;;;5009392;28;19925;-64
2022/05/19 13:24:09;;;;;;;;;;;32.10;95.90;;;;;;4978972;28;20522;-64
2022/05/19 13:26:37;;;;;;;;;;;32.30;95.10;;;;;;4997843;28;19930;-63
2022/05/19 13:32:04;;;;;;;;;;;32.40;95.40;;;;;;5004021;28;19925;-64
2022/05/19 13:34:44;;;;;;;;;;;32.30;95.30;;;;;;5008738;28;19925;-65
2022/05/19 13:37:10;;;;;;;;;;;32.30;95.40;;;;;;5014543;28;19929;-64
2022/05/19 13:39:41;;;;;;;;;;;32.10;95.60;;;;;;5002294;28;20396;-64
2022/05/19 13:42:09;;;;;;;;;;;32.20;96.30;;;;;;5017468;28;19970;-65
2022/05/19 13:44:39;;;;;;;;;;;32.30;96.10;;;;;;5013432;28;19961;-66
2022/05/19 13:47:32;;;;;;;;;;;32.80;95.90;;;;;;5021610;28;20036;-66
2022/05/19 13:50:02;;;;;;;;;;;33.00;95.20;;;;;;5005560;28;19925;-66
2022/05/19 13:52:36;;;;;;;;;;;33.10;95.30;;;;;;5005263;28;20019;-65
2022/05/19 13:55:04;;;;;;;;;;;32.90;95.30;;;;;;5015626;28;19925;-66
2022/05/19 13:57:33;;;;;;;;;;;32.90;95.30;;;;;;5014971;28;20390;-65
2022/05/19 14:00:03;;;;;;;;;;;33.00;95.60;;;;;;5003659;28;19932;-64
2022/05/19 14:02:32;;;;;;;;;;;33.40;95.10;;;;;;5011041;28;21938;-63
2022/05/19 14:04:59;;;;;;;;;;;33.70;95.40;;;;;;5007110;28;19969;-65
2022/05/19 14:07:26;;;;;;;;;;;33.70;95.10;;;;;;5017854;28;19926;-65
2022/05/19 14:09:59;;;;;;;;;;;34.10;95.40;;;;;;5009020;28;19926;-65
2022/05/19 14:12:29;;;;;;;;;;;34.10;95.10;;;;;;5002221;28;20268;-70
2022/05/19 14:15:01;;;;;;;;;;;33.80;94.70;;;;;;5008906;28;20036;-65
2022/05/19 14:17:31;;;;;;;;;;;33.70;94.90;;;;;;5005806;28;19925;-65
2022/05/19 14:20:00;;;;;;;;;;;34.10;94.80;;;;;;5013508;28;19933;-65
2022/05/19 14:22:27;;;;;;;;;;;34.00;95.00;;;;;;5008587;28;20293;-64
2022/05/19 14:24:54;;;;;;;;;;;34.10;95.10;;;;;;5009711;28;19933;-64
2022/05/19 14:27:22;;;;;;;;;;;33.60;95.20;;;;;;5007435;28;20020;-65
2022/05/19 14:29:48;;;;;;;;;;;33.20;95.80;;;;;;5012924;28;20032;-66
2022/05/19 14:32:19;;;;;;;;;;;33.60;95.70;;;;;;5018576;28;19929;-67
2022/05/19 14:34:46;;;;;;;;;;;34.60;94.80;;;;;;5003508;28;20332;-64
2022/05/19 14:37:18;;;;;;;;;;;35.00;94.80;;;;;;5017030;28;20277;-64
2022/05/19 14:39:52;;;;;;;;;;;34.70;94.20;;;;;;5022017;28;19961;-65
2022/05/19 14:45:13;;;;;;;;;;;34.50;94.30;;;;;;5013675;28;19976;-65
2022/05/19 14:47:42;;;;;;;;;;;34.60;94.50;;;;;;5015923;28;19932;-65
2022/05/19 14:50:13;;;;;;;;;;;35.20;93.60;;;;;;5010486;28;19937;-67
2022/05/19 14:52:42;;;;;;;;;;;35.40;93.20;;;;;;5001775;28;19930;-66
2022/05/19 14:55:12;;;;;;;;;;;35.10;92.90;;;;;;5011028;28;19925;-66
2022/05/19 14:57:39;;;;;;;;;;;35.10;93.00;;;;;;5022084;28;19925;-63
2022/05/19 15:00:06;;;;;;;;;;;35.80;93.30;;;;;;5020773;28;19948;-66
2022/05/19 15:02:36;;;;;;;;;;;36.90;92.50;;;;;;5009359;28;19942;-65